sensor_id;sensor_type;location;lat;lon;timestamp;temperature;humidity
18541;DHT22;9400;50.924;5.328;2023-02-19T00:01:46;10.70;99.90
18541;DHT22;9400;50.924;5.328;2023-02-19T00:04:17;10.60;99.90
18541;DHT22;9400;50.924;5.328;2023-02-19T00:06:47;10.60;99.90
18541;DHT22;9400;50.924;5.328;2023-02-19T00:09:16;10.60;99.90
18541;DHT22;9400;50.924;5.328;2023-02-19T00:11:45;10.60;99.90
18541;DHT22;9400;50.924;5.328;2023-02-19T00:14:16;10.60;99.10
18541;DHT22;9400;50.924;5.328;2023-02-19T00:16:44;10.60;99.90
18541;DHT22;9400;50.924;5.328;2023-02-19T00:19:14;10.60;99.90
18541;DHT22;9400;50.924;5.328;2023-02-19T00:21:43;10.60;99.90
18541;DHT22;9400;50.924;5.328;2023-02-19T00:24:12;10.60;99.90
18541;DHT22;9400;50.924;5.328;2023-02-19T00:26:41;10.60;99.90
18541;DHT22;9400;50.924;5.328;2023-02-19T00:29:12;10.60;99.90
18541;DHT22;9400;50.924;5.328;2023-02-19T00:31:40;10.60;99.90
18541;DHT22;9400;50.924;5.328;2023-02-19T00:34:10;10.50;99.90
18541;DHT22;9400;50.924;5.328;2023-02-19T00:36:43;10.50;99.90
18541;DHT22;9400;50.924;5.328;2023-02-19T00:39:12;10.50;99.90
18541;DHT22;9400;50.924;5.328;2023-02-19T00:41:40;10.50;99.90
18541;DHT22;9400;50.924;5.328;2023-02-19T00:44:10;10.50;99.90
18541;DHT22;9400;50.924;5.328;2023-02-19T00:46:40;10.50;99.90
18541;DHT22;9400;50.924;5.328;2023-02-19T00:49:10;10.50;99.90
18541;DHT22;9400;50.924;5.328;2023-02-19T00:51:40;10.50;99.90
18541;DHT22;9400;50.924;5.328;2023-02-19T00:54:10;10.50;99.90
18541;DHT22;9400;50.924;5.328;2023-02-19T00:56:38;10.50;99.90
18541;DHT22;9400;50.924;5.328;2023-02-19T00:59:06;10.50;99.90
18541;DHT22;9400;50.924;5.328;2023-02-19T01:01:34;10.50;99.90
18541;DHT22;9400;50.924;5.328;2023-02-19T01:04:02;10.50;99.90
18541;DHT22;9400;50.924;5.328;2023-02-19T01:06:30;10.50;99.90
18541;DHT22;9400;50.924;5.328;2023-02-19T01:08:58;10.50;99.90
18541;DHT22;9400;50.924;5.328;2023-02-19T01:11:27;10.50;99.90
18541;DHT22;9400;50.924;5.328;2023-02-19T01:13:56;10.50;99.90
18541;DHT22;9400;50.924;5.328;2023-02-19T01:16:25;10.50;99.90
18541;DHT22;9400;50.924;5.328;2023-02-19T01:18:53;10.50;99.90
18541;DHT22;9400;50.924;5.328;2023-02-19T01:21:22;10.50;99.90
18541;DHT22;9400;50.924;5.328;2023-02-19T01:23:51;10.50;99.90
18541;DHT22;9400;50.924;5.328;2023-02-19T01:26:22;10.50;99.90
18541;DHT22;9400;50.924;5.328;2023-02-19T01:28:51;10.50;99.90
18541;DHT22;9400;50.924;5.328;2023-02-19T01:31:20;10.50;99.90
18541;DHT22;9400;50.924;5.328;2023-02-19T01:33:50;10.50;71.30
18541;DHT22;9400;50.924;5.328;2023-02-19T01:36:18;10.60;50.20
18541;DHT22;9400;50.924;5.328;2023-02-19T01:38:45;10.60;37.10
18541;DHT22;9400;50.924;5.328;2023-02-19T01:41:14;10.60;26.20
18541;DHT22;9400;50.924;5.328;2023-02-19T01:44:00;10.60;10.30
18541;DHT22;9400;50.924;5.328;2023-02-19T01:46:29;10.60;1.00
18541;DHT22;9400;50.924;5.328;2023-02-19T01:48:59;10.60;1.00
18541;DHT22;9400;50.924;5.328;2023-02-19T01:51:30;10.60;58.90
18541;DHT22;9400;50.924;5.328;2023-02-19T01:54:01;10.60;1.00
18541;DHT22;9400;50.924;5.328;2023-02-19T01:56:30;10.60;1.00
18541;DHT22;9400;50.924;5.328;2023-02-19T01:59:01;10.60;1.00
18541;DHT22;9400;50.924;5.328;2023-02-19T02:01:29;10.60;1.00
18541;DHT22;9400;50.924;5.328;2023-02-19T02:03:57;10.60;1.00
18541;DHT22;9400;50.924;5.328;2023-02-19T02:06:27;10.70;1.00
18541;DHT22;9400;50.924;5.328;2023-02-19T02:08:56;10.70;1.00
18541;DHT22;9400;50.924;5.328;2023-02-19T02:11:45;10.70;1.00
18541;DHT22;9400;50.924;5.328;2023-02-19T02:14:17;10.70;1.00
18541;DHT22;9400;50.924;5.328;2023-02-19T02:16:54;10.70;1.00
18541;DHT22;9400;50.924;5.328;2023-02-19T02:19:45;10.70;1.00
18541;DHT22;9400;50.924;5.328;2023-02-19T02:22:21;10.70;1.00
18541;DHT22;9400;50.924;5.328;2023-02-19T02:25:15;10.70;99.90
18541;DHT22;9400;50.924;5.328;2023-02-19T02:28:05;10.70;99.90
18541;DHT22;9400;50.924;5.328;2023-02-19T02:30:42;10.70;21.90
18541;DHT22;9400;50.924;5.328;2023-02-19T02:33:23;10.70;3.60
18541;DHT22;9400;50.924;5.328;2023-02-19T02:35:56;10.70;31.40
18541;DHT22;9400;50.924;5.328;2023-02-19T02:38:28;10.70;49.20
18541;DHT22;9400;50.924;5.328;2023-02-19T02:40:58;10.70;93.80
18541;DHT22;9400;50.924;5.328;2023-02-19T02:43:26;10.70;99.90
18541;DHT22;9400;50.924;5.328;2023-02-19T02:45:55;10.70;99.90
18541;DHT22;9400;50.924;5.328;2023-02-19T02:48:28;10.70;99.90
18541;DHT22;9400;50.924;5.328;2023-02-19T02:51:01;10.70;86.10
18541;DHT22;9400;50.924;5.328;2023-02-19T02:53:34;10.70;28.30
18541;DHT22;9400;50.924;5.328;2023-02-19T02:56:24;10.70;44.50
18541;DHT22;9400;50.924;5.328;2023-02-19T02:58:53;10.80;40.40
18541;DHT22;9400;50.924;5.328;2023-02-19T03:01:26;10.80;29.60
18541;DHT22;9400;50.924;5.328;2023-02-19T03:04:17;10.80;9.90
18541;DHT22;9400;50.924;5.328;2023-02-19T03:06:47;10.80;35.70
18541;DHT22;9400;50.924;5.328;2023-02-19T03:09:18;10.80;70.90
18541;DHT22;9400;50.924;5.328;2023-02-19T03:11:49;10.80;90.60
18541;DHT22;9400;50.924;5.328;2023-02-19T03:14:40;10.80;93.70
18541;DHT22;9400;50.924;5.328;2023-02-19T03:17:31;10.70;94.60
18541;DHT22;9400;50.924;5.328;2023-02-19T03:20:21;10.70;1.00
18541;DHT22;9400;50.924;5.328;2023-02-19T03:22:50;10.70;1.00
18541;DHT22;9400;50.924;5.328;2023-02-19T03:25:20;10.70;33.20
18541;DHT22;9400;50.924;5.328;2023-02-19T03:28:08;10.70;97.60
18541;DHT22;9400;50.924;5.328;2023-02-19T03:30:40;10.70;80.30
18541;DHT22;9400;50.924;5.328;2023-02-19T03:33:13;10.70;99.90
18541;DHT22;9400;50.924;5.328;2023-02-19T03:35:45;10.70;30.90
18541;DHT22;9400;50.924;5.328;2023-02-19T03:38:16;10.60;86.50
18541;DHT22;9400;50.924;5.328;2023-02-19T03:40:57;10.60;99.90
18541;DHT22;9400;50.924;5.328;2023-02-19T03:43:36;10.60;99.90
18541;DHT22;9400;50.924;5.328;2023-02-19T03:46:09;10.60;99.90
18541;DHT22;9400;50.924;5.328;2023-02-19T03:48:47;10.60;99.90
18541;DHT22;9400;50.924;5.328;2023-02-19T03:51:26;10.60;99.90
18541;DHT22;9400;50.924;5.328;2023-02-19T03:54:06;10.60;99.90
18541;DHT22;9400;50.924;5.328;2023-02-19T03:56:44;10.60;99.90
18541;DHT22;9400;50.924;5.328;2023-02-19T03:59:17;10.60;93.80
18541;DHT22;9400;50.924;5.328;2023-02-19T04:01:51;10.60;99.90
18541;DHT22;9400;50.924;5.328;2023-02-19T04:04:26;10.60;99.90
18541;DHT22;9400;50.924;5.328;2023-02-19T04:06:56;10.50;1.00
18541;DHT22;9400;50.924;5.328;2023-02-19T04:09:26;10.50;1.00
18541;DHT22;9400;50.924;5.328;2023-02-19T04:11:55;10.50;1.00
18541;DHT22;9400;50.924;5.328;2023-02-19T04:14:27;10.50;1.00
18541;DHT22;9400;50.924;5.328;2023-02-19T04:16:59;10.50;66.70
18541;DHT22;9400;50.924;5.328;2023-02-19T04:19:32;10.50;76.00
18541;DHT22;9400;50.924;5.328;2023-02-19T04:22:03;10.50;69.50
18541;DHT22;9400;50.924;5.328;2023-02-19T04:24:35;10.50;1.00
18541;DHT22;9400;50.924;5.328;2023-02-19T04:27:04;10.50;8.50
18541;DHT22;9400;50.924;5.328;2023-02-19T04:29:33;10.50;58.20
18541;DHT22;9400;50.924;5.328;2023-02-19T04:32:02;10.50;23.20
18541;DHT22;9400;50.924;5.328;2023-02-19T04:34:31;10.50;99.90
18541;DHT22;9400;50.924;5.328;2023-02-19T04:37:00;10.50;1.00
18541;DHT22;9400;50.924;5.328;2023-02-19T04:39:27;10.50;99.90
18541;DHT22;9400;50.924;5.328;2023-02-19T04:41:55;10.50;52.40
18541;DHT22;9400;50.924;5.328;2023-02-19T04:44:23;10.50;99.90
18541;DHT22;9400;50.924;5.328;2023-02-19T04:46:51;10.50;99.90
18541;DHT22;9400;50.924;5.328;2023-02-19T04:49:18;10.50;99.90
18541;DHT22;9400;50.924;5.328;2023-02-19T04:51:49;10.50;99.90
18541;DHT22;9400;50.924;5.328;2023-02-19T04:54:16;10.50;99.90
18541;DHT22;9400;50.924;5.328;2023-02-19T04:56:44;10.40;99.90
18541;DHT22;9400;50.924;5.328;2023-02-19T04:59:12;10.40;99.90
18541;DHT22;9400;50.924;5.328;2023-02-19T05:01:40;10.40;99.90
18541;DHT22;9400;50.924;5.328;2023-02-19T05:04:09;10.40;99.90
18541;DHT22;9400;50.924;5.328;2023-02-19T05:06:37;10.40;99.90
18541;DHT22;9400;50.924;5.328;2023-02-19T05:09:06;10.40;99.90
18541;DHT22;9400;50.924;5.328;2023-02-19T05:11:34;10.50;99.90
18541;DHT22;9400;50.924;5.328;2023-02-19T05:14:02;10.40;99.90
18541;DHT22;9400;50.924;5.328;2023-02-19T05:16:30;10.40;99.90
18541;DHT22;9400;50.924;5.328;2023-02-19T05:18:58;10.40;99.90
18541;DHT22;9400;50.924;5.328;2023-02-19T05:21:29;10.40;99.90
18541;DHT22;9400;50.924;5.328;2023-02-19T05:23:56;10.40;99.90
18541;DHT22;9400;50.924;5.328;2023-02-19T05:26:25;10.40;99.90
18541;DHT22;9400;50.924;5.328;2023-02-19T05:28:54;10.40;99.90
18541;DHT22;9400;50.924;5.328;2023-02-19T05:31:22;10.40;99.90
18541;DHT22;9400;50.924;5.328;2023-02-19T05:33:53;10.40;99.90
18541;DHT22;9400;50.924;5.328;2023-02-19T05:36:21;10.40;99.90
18541;DHT22;9400;50.924;5.328;2023-02-19T05:38:51;10.40;99.90
18541;DHT22;9400;50.924;5.328;2023-02-19T05:41:21;10.40;99.90
18541;DHT22;9400;50.924;5.328;2023-02-19T05:43:51;10.40;99.90
18541;DHT22;9400;50.924;5.328;2023-02-19T05:46:20;10.40;99.90
18541;DHT22;9400;50.924;5.328;2023-02-19T05:48:49;10.40;99.90
18541;DHT22;9400;50.924;5.328;2023-02-19T05:51:19;10.40;99.90
18541;DHT22;9400;50.924;5.328;2023-02-19T05:53:48;10.40;99.90
18541;DHT22;9400;50.924;5.328;2023-02-19T05:56:26;10.40;99.90
18541;DHT22;9400;50.924;5.328;2023-02-19T05:58:58;10.40;99.90
18541;DHT22;9400;50.924;5.328;2023-02-19T06:01:27;10.30;98.10
18541;DHT22;9400;50.924;5.328;2023-02-19T06:03:56;10.30;90.70
18541;DHT22;9400;50.924;5.328;2023-02-19T06:06:27;10.30;99.90
18541;DHT22;9400;50.924;5.328;2023-02-19T06:08:55;10.30;99.90
18541;DHT22;9400;50.924;5.328;2023-02-19T06:11:24;10.30;99.90
18541;DHT22;9400;50.924;5.328;2023-02-19T06:13:52;10.30;99.90
18541;DHT22;9400;50.924;5.328;2023-02-19T06:16:21;10.30;99.90
18541;DHT22;9400;50.924;5.328;2023-02-19T06:18:49;10.30;99.90
18541;DHT22;9400;50.924;5.328;2023-02-19T06:21:17;10.30;99.90
18541;DHT22;9400;50.924;5.328;2023-02-19T06:23:45;10.30;99.90
18541;DHT22;9400;50.924;5.328;2023-02-19T06:26:14;10.20;99.90
18541;DHT22;9400;50.924;5.328;2023-02-19T06:28:43;10.20;99.90
18541;DHT22;9400;50.924;5.328;2023-02-19T06:31:12;10.30;99.90
18541;DHT22;9400;50.924;5.328;2023-02-19T06:33:41;10.20;99.90
18541;DHT22;9400;50.924;5.328;2023-02-19T06:36:12;10.20;99.90
18541;DHT22;9400;50.924;5.328;2023-02-19T06:38:41;10.20;99.90
18541;DHT22;9400;50.924;5.328;2023-02-19T06:41:09;10.20;99.90
18541;DHT22;9400;50.924;5.328;2023-02-19T06:43:37;10.20;99.90
18541;DHT22;9400;50.924;5.328;2023-02-19T06:46:05;10.20;99.90
18541;DHT22;9400;50.924;5.328;2023-02-19T06:48:35;10.20;99.90
18541;DHT22;9400;50.924;5.328;2023-02-19T06:51:07;10.20;99.90
18541;DHT22;9400;50.924;5.328;2023-02-19T06:53:35;10.20;99.90
18541;DHT22;9400;50.924;5.328;2023-02-19T06:56:05;10.10;99.90
18541;DHT22;9400;50.924;5.328;2023-02-19T06:58:33;10.20;99.90
18541;DHT22;9400;50.924;5.328;2023-02-19T07:01:02;10.10;99.90
18541;DHT22;9400;50.924;5.328;2023-02-19T07:03:29;10.10;99.90
18541;DHT22;9400;50.924;5.328;2023-02-19T07:05:59;10.10;99.90
18541;DHT22;9400;50.924;5.328;2023-02-19T07:08:28;10.20;99.90
18541;DHT22;9400;50.924;5.328;2023-02-19T07:10:56;10.20;99.90
18541;DHT22;9400;50.924;5.328;2023-02-19T07:13:25;10.20;99.90
18541;DHT22;9400;50.924;5.328;2023-02-19T07:15:58;10.20;99.90
18541;DHT22;9400;50.924;5.328;2023-02-19T07:18:26;10.30;99.90
18541;DHT22;9400;50.924;5.328;2023-02-19T07:20:54;10.30;99.90
18541;DHT22;9400;50.924;5.328;2023-02-19T07:23:22;10.30;99.90
18541;DHT22;9400;50.924;5.328;2023-02-19T07:25:51;10.30;99.90
18541;DHT22;9400;50.924;5.328;2023-02-19T07:28:19;10.30;99.90
18541;DHT22;9400;50.924;5.328;2023-02-19T07:30:46;10.30;99.90
18541;DHT22;9400;50.924;5.328;2023-02-19T07:33:14;10.30;99.90
18541;DHT22;9400;50.924;5.328;2023-02-19T07:35:45;10.30;99.90
18541;DHT22;9400;50.924;5.328;2023-02-19T07:38:15;10.30;99.90
18541;DHT22;9400;50.924;5.328;2023-02-19T07:40:51;10.30;99.90
18541;DHT22;9400;50.924;5.328;2023-02-19T07:43:19;10.40;99.90
18541;DHT22;9400;50.924;5.328;2023-02-19T07:45:50;10.30;99.90
18541;DHT22;9400;50.924;5.328;2023-02-19T07:48:19;10.30;99.90
18541;DHT22;9400;50.924;5.328;2023-02-19T07:50:50;10.40;99.90
18541;DHT22;9400;50.924;5.328;2023-02-19T07:53:18;10.30;99.90
18541;DHT22;9400;50.924;5.328;2023-02-19T07:55:47;10.20;99.90
18541;DHT22;9400;50.924;5.328;2023-02-19T07:58:19;10.30;99.90
18541;DHT22;9400;50.924;5.328;2023-02-19T08:00:47;10.30;99.90
18541;DHT22;9400;50.924;5.328;2023-02-19T08:03:14;10.30;99.90
18541;DHT22;9400;50.924;5.328;2023-02-19T08:05:42;10.30;99.90
18541;DHT22;9400;50.924;5.328;2023-02-19T08:08:11;10.30;99.90
18541;DHT22;9400;50.924;5.328;2023-02-19T08:10:40;10.30;99.90
18541;DHT22;9400;50.924;5.328;2023-02-19T08:13:28;10.40;99.90
18541;DHT22;9400;50.924;5.328;2023-02-19T08:16:10;10.30;99.90
18541;DHT22;9400;50.924;5.328;2023-02-19T08:18:38;10.30;99.90
18541;DHT22;9400;50.924;5.328;2023-02-19T08:21:06;10.20;99.90
18541;DHT22;9400;50.924;5.328;2023-02-19T08:23:35;10.10;99.90
18541;DHT22;9400;50.924;5.328;2023-02-19T08:26:02;10.10;99.90
18541;DHT22;9400;50.924;5.328;2023-02-19T08:28:31;10.10;99.90
18541;DHT22;9400;50.924;5.328;2023-02-19T08:31:01;10.10;99.90
18541;DHT22;9400;50.924;5.328;2023-02-19T08:33:29;10.10;99.90
18541;DHT22;9400;50.924;5.328;2023-02-19T08:36:01;10.10;99.90
18541;DHT22;9400;50.924;5.328;2023-02-19T08:38:30;10.10;99.90
18541;DHT22;9400;50.924;5.328;2023-02-19T08:41:02;10.10;99.90
18541;DHT22;9400;50.924;5.328;2023-02-19T08:43:31;10.10;99.90
18541;DHT22;9400;50.924;5.328;2023-02-19T08:46:00;10.00;99.90
18541;DHT22;9400;50.924;5.328;2023-02-19T08:48:27;10.00;99.90
18541;DHT22;9400;50.924;5.328;2023-02-19T08:51:01;10.10;99.90
18541;DHT22;9400;50.924;5.328;2023-02-19T08:53:34;10.20;99.90
18541;DHT22;9400;50.924;5.328;2023-02-19T08:56:04;10.20;99.90
18541;DHT22;9400;50.924;5.328;2023-02-19T08:58:33;10.20;99.90
18541;DHT22;9400;50.924;5.328;2023-02-19T09:01:02;10.10;99.90
18541;DHT22;9400;50.924;5.328;2023-02-19T09:03:30;10.00;99.90
18541;DHT22;9400;50.924;5.328;2023-02-19T09:05:58;9.90;99.90
18541;DHT22;9400;50.924;5.328;2023-02-19T09:08:26;9.80;99.90
18541;DHT22;9400;50.924;5.328;2023-02-19T09:10:58;9.80;1.00
18541;DHT22;9400;50.924;5.328;2023-02-19T09:13:25;9.90;60.80
18541;DHT22;9400;50.924;5.328;2023-02-19T09:15:55;9.90;2.80
18541;DHT22;9400;50.924;5.328;2023-02-19T09:18:23;9.90;1.00
18541;DHT22;9400;50.924;5.328;2023-02-19T09:20:51;10.00;1.00
18541;DHT22;9400;50.924;5.328;2023-02-19T09:23:19;9.90;1.00
18541;DHT22;9400;50.924;5.328;2023-02-19T09:25:47;9.90;1.00
18541;DHT22;9400;50.924;5.328;2023-02-19T09:28:15;9.90;1.00
18541;DHT22;9400;50.924;5.328;2023-02-19T09:30:42;9.90;1.00
18541;DHT22;9400;50.924;5.328;2023-02-19T09:33:12;9.90;1.00
18541;DHT22;9400;50.924;5.328;2023-02-19T09:35:40;9.90;1.00
18541;DHT22;9400;50.924;5.328;2023-02-19T09:38:08;9.80;1.00
18541;DHT22;9400;50.924;5.328;2023-02-19T09:40:37;9.90;1.00
18541;DHT22;9400;50.924;5.328;2023-02-19T09:43:13;9.90;1.00
18541;DHT22;9400;50.924;5.328;2023-02-19T09:45:42;9.90;1.00
18541;DHT22;9400;50.924;5.328;2023-02-19T09:48:12;9.90;1.00
18541;DHT22;9400;50.924;5.328;2023-02-19T09:50:42;10.00;1.00
18541;DHT22;9400;50.924;5.328;2023-02-19T09:53:16;10.20;1.00
18541;DHT22;9400;50.924;5.328;2023-02-19T09:55:48;10.30;1.00
18541;DHT22;9400;50.924;5.328;2023-02-19T09:58:23;10.50;1.00
18541;DHT22;9400;50.924;5.328;2023-02-19T10:00:54;10.60;1.00
18541;DHT22;9400;50.924;5.328;2023-02-19T10:03:27;10.80;1.00
18541;DHT22;9400;50.924;5.328;2023-02-19T10:06:00;10.70;1.00
18541;DHT22;9400;50.924;5.328;2023-02-19T10:08:31;10.60;1.00
18541;DHT22;9400;50.924;5.328;2023-02-19T10:10:59;10.60;1.20
18541;DHT22;9400;50.924;5.328;2023-02-19T10:13:30;10.60;8.90
18541;DHT22;9400;50.924;5.328;2023-02-19T10:16:01;10.40;1.00
18541;DHT22;9400;50.924;5.328;2023-02-19T10:18:36;10.30;99.90
18541;DHT22;9400;50.924;5.328;2023-02-19T10:21:06;10.30;99.90
18541;DHT22;9400;50.924;5.328;2023-02-19T10:23:34;10.10;99.90
18541;DHT22;9400;50.924;5.328;2023-02-19T10:26:18;10.10;1.00
18541;DHT22;9400;50.924;5.328;2023-02-19T10:28:53;10.10;1.00
18541;DHT22;9400;50.924;5.328;2023-02-19T10:31:25;10.20;1.00
18541;DHT22;9400;50.924;5.328;2023-02-19T10:34:03;10.10;1.00
18541;DHT22;9400;50.924;5.328;2023-02-19T10:36:43;10.20;1.00
18541;DHT22;9400;50.924;5.328;2023-02-19T10:39:31;10.30;1.00
18541;DHT22;9400;50.924;5.328;2023-02-19T10:42:17;10.50;1.00
18541;DHT22;9400;50.924;5.328;2023-02-19T10:44:50;10.60;99.90
18541;DHT22;9400;50.924;5.328;2023-02-19T10:47:24;10.60;99.90
18541;DHT22;9400;50.924;5.328;2023-02-19T10:49:56;10.60;46.10
18541;DHT22;9400;50.924;5.328;2023-02-19T10:52:27;10.60;99.90
18541;DHT22;9400;50.924;5.328;2023-02-19T10:55:13;10.60;1.00
18541;DHT22;9400;50.924;5.328;2023-02-19T10:57:45;10.60;1.00
18541;DHT22;9400;50.924;5.328;2023-02-19T11:00:25;10.60;1.00
18541;DHT22;9400;50.924;5.328;2023-02-19T11:03:18;10.60;1.00
18541;DHT22;9400;50.924;5.328;2023-02-19T11:05:59;10.60;29.70
18541;DHT22;9400;50.924;5.328;2023-02-19T11:08:30;10.70;90.20
18541;DHT22;9400;50.924;5.328;2023-02-19T11:11:00;10.90;1.00
18541;DHT22;9400;50.924;5.328;2023-02-19T11:13:30;10.90;1.00
18541;DHT22;9400;50.924;5.328;2023-02-19T11:16:05;10.90;99.90
18541;DHT22;9400;50.924;5.328;2023-02-19T11:18:34;11.00;1.00
18541;DHT22;9400;50.924;5.328;2023-02-19T11:21:04;11.00;99.90
18541;DHT22;9400;50.924;5.328;2023-02-19T11:23:35;11.00;1.00
18541;DHT22;9400;50.924;5.328;2023-02-19T11:26:12;11.00;1.00
18541;DHT22;9400;50.924;5.328;2023-02-19T11:28:42;10.80;1.00
18541;DHT22;9400;50.924;5.328;2023-02-19T11:31:29;10.60;4.00
18541;DHT22;9400;50.924;5.328;2023-02-19T11:33:58;10.50;1.00
18541;DHT22;9400;50.924;5.328;2023-02-19T11:36:30;10.60;1.00
18541;DHT22;9400;50.924;5.328;2023-02-19T11:39:01;10.60;99.90
18541;DHT22;9400;50.924;5.328;2023-02-19T11:41:52;10.60;1.00
18541;DHT22;9400;50.924;5.328;2023-02-19T11:44:30;10.50;1.00
18541;DHT22;9400;50.924;5.328;2023-02-19T11:47:19;10.50;1.00
18541;DHT22;9400;50.924;5.328;2023-02-19T11:49:56;10.60;1.00
18541;DHT22;9400;50.924;5.328;2023-02-19T11:52:36;10.60;1.00
18541;DHT22;9400;50.924;5.328;2023-02-19T11:55:09;10.70;1.00
18541;DHT22;9400;50.924;5.328;2023-02-19T11:57:42;10.60;1.00
18541;DHT22;9400;50.924;5.328;2023-02-19T12:00:25;10.60;1.00
18541;DHT22;9400;50.924;5.328;2023-02-19T12:03:16;10.80;1.00
18541;DHT22;9400;50.924;5.328;2023-02-19T12:06:11;10.70;1.00
18541;DHT22;9400;50.924;5.328;2023-02-19T12:11:55;10.70;1.00
18541;DHT22;9400;50.924;5.328;2023-02-19T12:14:46;10.80;1.00
18541;DHT22;9400;50.924;5.328;2023-02-19T12:17:27;10.80;4.90
18541;DHT22;9400;50.924;5.328;2023-02-19T12:20:10;10.80;34.80
18541;DHT22;9400;50.924;5.328;2023-02-19T12:22:47;10.90;73.00
18541;DHT22;9400;50.924;5.328;2023-02-19T12:25:48;10.90;14.90
18541;DHT22;9400;50.924;5.328;2023-02-19T12:28:55;10.80;99.90
18541;DHT22;9400;50.924;5.328;2023-02-19T12:31:51;10.70;99.90
18541;DHT22;9400;50.924;5.328;2023-02-19T12:34:32;10.70;99.90
18541;DHT22;9400;50.924;5.328;2023-02-19T12:37:21;10.80;99.90
18541;DHT22;9400;50.924;5.328;2023-02-19T12:40:13;10.80;99.90
18541;DHT22;9400;50.924;5.328;2023-02-19T12:42:53;10.80;99.90
18541;DHT22;9400;50.924;5.328;2023-02-19T12:45:30;10.90;99.90
18541;DHT22;9400;50.924;5.328;2023-02-19T12:48:04;11.00;99.90
18541;DHT22;9400;50.924;5.328;2023-02-19T12:50:35;11.00;99.90
18541;DHT22;9400;50.924;5.328;2023-02-19T12:53:11;11.10;99.90
18541;DHT22;9400;50.924;5.328;2023-02-19T12:55:43;11.10;99.90
18541;DHT22;9400;50.924;5.328;2023-02-19T12:58:21;11.10;99.90
18541;DHT22;9400;50.924;5.328;2023-02-19T13:00:53;11.10;99.90
18541;DHT22;9400;50.924;5.328;2023-02-19T13:03:29;11.00;99.90
18541;DHT22;9400;50.924;5.328;2023-02-19T13:06:03;11.00;99.90
18541;DHT22;9400;50.924;5.328;2023-02-19T13:08:38;11.00;99.90
18541;DHT22;9400;50.924;5.328;2023-02-19T13:11:11;11.00;99.90
18541;DHT22;9400;50.924;5.328;2023-02-19T13:13:45;11.00;99.90
18541;DHT22;9400;50.924;5.328;2023-02-19T13:16:17;11.10;99.90
18541;DHT22;9400;50.924;5.328;2023-02-19T13:18:48;11.10;99.90
18541;DHT22;9400;50.924;5.328;2023-02-19T13:21:20;11.10;99.90
18541;DHT22;9400;50.924;5.328;2023-02-19T13:24:08;11.10;99.90
18541;DHT22;9400;50.924;5.328;2023-02-19T13:27:02;11.10;99.90
18541;DHT22;9400;50.924;5.328;2023-02-19T13:29:40;11.10;99.90
18541;DHT22;9400;50.924;5.328;2023-02-19T13:32:38;11.00;99.90
18541;DHT22;9400;50.924;5.328;2023-02-19T13:35:24;11.00;99.90
18541;DHT22;9400;50.924;5.328;2023-02-19T13:37:59;11.00;99.90
18541;DHT22;9400;50.924;5.328;2023-02-19T13:40:31;10.90;99.90
18541;DHT22;9400;50.924;5.328;2023-02-19T13:43:02;10.90;99.90
18541;DHT22;9400;50.924;5.328;2023-02-19T13:45:35;10.80;99.90
18541;DHT22;9400;50.924;5.328;2023-02-19T13:48:23;10.80;99.90
18541;DHT22;9400;50.924;5.328;2023-02-19T13:53:58;10.70;99.90
18541;DHT22;9400;50.924;5.328;2023-02-19T13:56:38;10.60;99.90
18541;DHT22;9400;50.924;5.328;2023-02-19T13:59:25;10.60;99.90
18541;DHT22;9400;50.924;5.328;2023-02-19T14:02:11;10.50;99.90
18541;DHT22;9400;50.924;5.328;2023-02-19T14:04:49;10.50;99.90
18541;DHT22;9400;50.924;5.328;2023-02-19T14:07:36;10.40;99.90
18541;DHT22;9400;50.924;5.328;2023-02-19T14:10:10;10.40;99.90
18541;DHT22;9400;50.924;5.328;2023-02-19T14:12:38;10.10;99.90
18541;DHT22;9400;50.924;5.328;2023-02-19T14:15:36;10.00;1.00
18541;DHT22;9400;50.924;5.328;2023-02-19T14:18:41;10.00;25.00
18541;DHT22;9400;50.924;5.328;2023-02-19T14:21:23;10.00;1.00
18541;DHT22;9400;50.924;5.328;2023-02-19T14:23:54;10.00;99.90
18541;DHT22;9400;50.924;5.328;2023-02-19T14:26:24;10.00;99.90
18541;DHT22;9400;50.924;5.328;2023-02-19T14:28:53;10.10;99.90
18541;DHT22;9400;50.924;5.328;2023-02-19T14:31:26;10.20;99.90
18541;DHT22;9400;50.924;5.328;2023-02-19T14:33:57;10.20;99.90
18541;DHT22;9400;50.924;5.328;2023-02-19T14:36:41;10.30;99.90
18541;DHT22;9400;50.924;5.328;2023-02-19T14:39:14;10.30;99.90
18541;DHT22;9400;50.924;5.328;2023-02-19T14:41:47;10.10;99.90
18541;DHT22;9400;50.924;5.328;2023-02-19T14:44:18;10.10;99.90
18541;DHT22;9400;50.924;5.328;2023-02-19T14:46:53;10.00;99.90
18541;DHT22;9400;50.924;5.328;2023-02-19T14:49:40;10.00;99.90
18541;DHT22;9400;50.924;5.328;2023-02-19T14:52:16;9.90;99.90
18541;DHT22;9400;50.924;5.328;2023-02-19T14:54:51;9.90;95.10
18541;DHT22;9400;50.924;5.328;2023-02-19T14:57:22;9.90;99.80
18541;DHT22;9400;50.924;5.328;2023-02-19T14:59:54;10.00;99.90
18541;DHT22;9400;50.924;5.328;2023-02-19T15:02:25;10.00;99.90
18541;DHT22;9400;50.924;5.328;2023-02-19T15:04:55;10.10;93.90
18541;DHT22;9400;50.924;5.328;2023-02-19T15:07:25;10.10;99.90
18541;DHT22;9400;50.924;5.328;2023-02-19T15:09:56;10.10;99.90
18541;DHT22;9400;50.924;5.328;2023-02-19T15:12:31;10.20;99.90
18541;DHT22;9400;50.924;5.328;2023-02-19T15:15:02;10.10;99.10
18541;DHT22;9400;50.924;5.328;2023-02-19T15:17:32;10.20;99.90
18541;DHT22;9400;50.924;5.328;2023-02-19T15:20:08;10.10;99.90
18541;DHT22;9400;50.924;5.328;2023-02-19T15:22:39;10.10;99.90
18541;DHT22;9400;50.924;5.328;2023-02-19T15:25:12;10.00;99.90
18541;DHT22;9400;50.924;5.328;2023-02-19T15:27:42;10.10;99.90
18541;DHT22;9400;50.924;5.328;2023-02-19T15:30:19;10.00;99.90
18541;DHT22;9400;50.924;5.328;2023-02-19T15:32:54;10.00;99.90
18541;DHT22;9400;50.924;5.328;2023-02-19T15:35:26;10.00;99.90
18541;DHT22;9400;50.924;5.328;2023-02-19T15:37:54;9.90;99.90
18541;DHT22;9400;50.924;5.328;2023-02-19T15:40:25;9.90;99.90
18541;DHT22;9400;50.924;5.328;2023-02-19T15:42:55;9.90;99.90
18541;DHT22;9400;50.924;5.328;2023-02-19T15:45:25;9.80;99.90
18541;DHT22;9400;50.924;5.328;2023-02-19T15:47:56;9.80;99.90
18541;DHT22;9400;50.924;5.328;2023-02-19T15:50:29;9.80;99.90
18541;DHT22;9400;50.924;5.328;2023-02-19T15:53:01;9.80;99.90
18541;DHT22;9400;50.924;5.328;2023-02-19T15:55:36;9.70;99.90
18541;DHT22;9400;50.924;5.328;2023-02-19T15:58:13;9.70;99.90
18541;DHT22;9400;50.924;5.328;2023-02-19T16:00:46;9.60;99.90
18541;DHT22;9400;50.924;5.328;2023-02-19T16:03:18;9.70;99.90
18541;DHT22;9400;50.924;5.328;2023-02-19T16:05:57;9.70;99.90
18541;DHT22;9400;50.924;5.328;2023-02-19T16:08:29;9.70;99.90
18541;DHT22;9400;50.924;5.328;2023-02-19T16:10:58;9.70;99.90
18541;DHT22;9400;50.924;5.328;2023-02-19T16:13:28;9.60;99.90
18541;DHT22;9400;50.924;5.328;2023-02-19T16:15:59;9.70;99.90
18541;DHT22;9400;50.924;5.328;2023-02-19T16:18:27;9.70;99.90
18541;DHT22;9400;50.924;5.328;2023-02-19T16:21:01;9.70;92.80
18541;DHT22;9400;50.924;5.328;2023-02-19T16:23:30;9.60;94.50
18541;DHT22;9400;50.924;5.328;2023-02-19T16:25:59;9.60;91.00
18541;DHT22;9400;50.924;5.328;2023-02-19T16:28:30;9.60;99.90
18541;DHT22;9400;50.924;5.328;2023-02-19T16:31:02;9.60;92.30
18541;DHT22;9400;50.924;5.328;2023-02-19T16:33:35;9.60;93.30
18541;DHT22;9400;50.924;5.328;2023-02-19T16:36:24;9.60;95.30